Time;durP1;ratioP1;P1;durP2;ratioP2;P2;SDS_P1;SDS_P2;PMS_P1;PMS_P2;Temp;Humidity;BMP_temperature;BMP_pressure;BME280_temperature;BME280_humidity;BME280_pressure;Samples;Min_cycle;Max_cycle;Signal;HPM_P1;HPM_P2
2024/04/08 00:00:24;;;;;;;1999.90;999.90;;;;;;;;;;5033815;28;20056;-78
2024/04/08 00:02:50;;;;;;;1999.90;999.90;;;;;;;;;;5034167;28;20601;-79
2024/04/08 00:05:17;;;;;;;1999.90;999.90;;;;;;;;;;5038217;28;20056;-79
2024/04/08 00:07:43;;;;;;;1999.90;999.90;;;;;;;;;;5032165;28;20061;-79
2024/04/08 00:10:10;;;;;;;1999.90;999.90;;;;;;;;;;5032334;28;20052;-79
2024/04/08 00:12:38;;;;;;;1999.90;999.90;;;;;;;;;;5033378;28;20045;-78
2024/04/08 00:15:12;;;;;;;1999.90;999.90;;;;;;;;;;5035295;28;20060;-78
2024/04/08 00:17:41;;;;;;;1999.90;999.90;;;;;;;;;;5028939;28;20064;-78
2024/04/08 00:20:09;;;;;;;1999.90;999.90;;;;;;;;;;5037088;28;20521;-78
2024/04/08 00:22:34;;;;;;;1999.90;999.90;;;;;;;;;;5034965;28;20096;-78
2024/04/08 00:25:01;;;;;;;1999.90;999.90;;;;;;;;;;5027443;28;20046;-78
2024/04/08 00:27:28;;;;;;;1999.90;999.90;;;;;;;;;;5032630;28;20053;-79
2024/04/08 00:29:54;;;;;;;1999.90;999.90;;;;;;;;;;5031666;28;20108;-78
2024/04/08 00:32:23;;;;;;;1999.90;999.90;;;;;;;;;;5028495;28;20059;-78
2024/04/08 00:34:49;;;;;;;1999.90;999.90;;;;;;;;;;5030804;28;20050;-78
2024/04/08 00:37:15;;;;;;;1999.90;999.90;;;;;;;;;;5031393;28;20051;-78
2024/04/08 00:39:41;;;;;;;1999.90;999.90;;;;;;;;;;5034582;28;20104;-78
2024/04/08 00:42:07;;;;;;;1999.90;999.90;;;;;;;;;;5034583;28;20129;-79
2024/04/08 00:44:34;;;;;;;1999.90;999.90;;;;;;;;;;5030013;28;20168;-78
2024/04/08 00:47:00;;;;;;;1999.90;999.90;;;;;;;;;;5038116;28;20072;-78
2024/04/08 00:49:29;;;;;;;1999.90;999.90;;;;;;;;;;5036882;28;20418;-78
2024/04/08 00:51:56;;;;;;;1999.90;999.90;;;;;;;;;;5037962;28;20056;-78
2024/04/08 00:54:24;;;;;;;1999.90;999.90;;;;;;;;;;5033428;28;20433;-78
2024/04/08 00:56:53;;;;;;;1999.90;999.90;;;;;;;;;;5034167;28;20053;-78
2024/04/08 00:59:22;;;;;;;1999.90;999.90;;;;;;;;;;5034885;28;20052;-77
2024/04/08 01:01:49;;;;;;;1999.90;999.90;;;;;;;;;;5027791;28;20057;-78
2024/04/08 01:04:16;;;;;;;1999.90;999.90;;;;;;;;;;5033949;28;20053;-77
2024/04/08 01:06:43;;;;;;;1999.90;999.90;;;;;;;;;;5025671;28;20427;-78
2024/04/08 01:09:09;;;;;;;1999.90;999.90;;;;;;;;;;5039197;28;20081;-78
2024/04/08 01:11:35;;;;;;;1999.90;999.90;;;;;;;;;;5033464;28;20045;-78
2024/04/08 01:14:05;;;;;;;1999.90;999.90;;;;;;;;;;5035048;28;20136;-79
2024/04/08 01:16:30;;;;;;;1999.90;999.90;;;;;;;;;;5032495;28;20052;-80
2024/04/08 01:18:58;;;;;;;1999.90;999.90;;;;;;;;;;5036007;28;20048;-80
2024/04/08 01:21:23;;;;;;;1999.90;999.90;;;;;;;;;;5035383;28;20061;-79
2024/04/08 01:23:53;;;;;;;1999.90;999.90;;;;;;;;;;5037726;28;20046;-80
2024/04/08 01:26:18;;;;;;;1999.90;999.90;;;;;;;;;;5032111;28;20059;-79
2024/04/08 01:28:45;;;;;;;1999.90;999.90;;;;;;;;;;5032614;28;20414;-79
2024/04/08 01:31:11;;;;;;;1999.90;999.90;;;;;;;;;;5036450;28;20046;-79
2024/04/08 01:33:40;;;;;;;1999.90;999.90;;;;;;;;;;5033091;28;20808;-79
2024/04/08 01:36:07;;;;;;;1999.90;999.90;;;;;;;;;;5035556;28;20418;-79
2024/04/08 01:38:37;;;;;;;1999.90;999.90;;;;;;;;;;5034626;28;20061;-79
2024/04/08 01:41:04;;;;;;;1999.90;999.90;;;;;;;;;;5039210;28;20140;-79
2024/04/08 01:43:31;;;;;;;1999.90;999.90;;;;;;;;;;5040703;28;20061;-78
2024/04/08 01:45:56;;;;;;;1999.90;999.90;;;;;;;;;;5036138;28;20058;-78
2024/04/08 01:48:23;;;;;;;1999.90;999.90;;;;;;;;;;5037977;28;20057;-78
2024/04/08 01:50:49;;;;;;;1999.90;999.90;;;;;;;;;;5038405;28;20048;-78
2024/04/08 01:53:15;;;;;;;1999.90;999.90;;;;;;;;;;5025811;28;20055;-79
2024/04/08 01:55:41;;;;;;;1999.90;999.90;;;;;;;;;;5036617;28;20139;-78
2024/04/08 01:58:10;;;;;;;1999.90;999.90;;;;;;;;;;5031803;28;20059;-79
2024/04/08 02:00:36;;;;;;;1999.90;999.90;;;;;;;;;;5028343;28;20046;-78
2024/04/08 02:03:02;;;;;;;1999.90;999.90;;;;;;;;;;5032099;28;20569;-79
2024/04/08 02:05:28;;;;;;;1999.90;999.90;;;;;;;;;;5035960;28;20045;-79
2024/04/08 02:07:54;;;;;;;1999.90;999.90;;;;;;;;;;5033483;28;20057;-79
2024/04/08 02:10:20;;;;;;;1999.90;999.90;;;;;;;;;;5033949;28;20049;-79
2024/04/08 02:12:47;;;;;;;1999.90;999.90;;;;;;;;;;5036846;28;20057;-79
2024/04/08 02:15:15;;;;;;;1999.90;999.90;;;;;;;;;;5033993;28;20423;-78
2024/04/08 02:17:41;;;;;;;1999.90;999.90;;;;;;;;;;5033778;28;20093;-78
2024/04/08 02:20:09;;;;;;;1999.90;999.90;;;;;;;;;;5032262;28;20419;-78
2024/04/08 02:22:35;;;;;;;1999.90;999.90;;;;;;;;;;5034169;28;20042;-78
2024/04/08 02:25:01;;;;;;;1999.90;999.90;;;;;;;;;;5035238;28;20053;-79
2024/04/08 02:27:28;;;;;;;1999.90;999.90;;;;;;;;;;5026997;28;20080;-78
2024/04/08 02:29:54;;;;;;;1999.90;999.90;;;;;;;;;;5029307;28;20045;-78
2024/04/08 02:32:22;;;;;;;1999.90;999.90;;;;;;;;;;5032554;28;20315;-78
2024/04/08 02:34:48;;;;;;;1999.90;999.90;;;;;;;;;;5039164;28;20063;-78
2024/04/08 02:37:14;;;;;;;1999.90;999.90;;;;;;;;;;5032840;28;20041;-80
2024/04/08 02:39:40;;;;;;;1999.90;999.90;;;;;;;;;;5033047;28;20484;-78
2024/04/08 02:42:06;;;;;;;1999.90;999.90;;;;;;;;;;5032702;28;20143;-78
2024/04/08 02:44:32;;;;;;;1999.90;999.90;;;;;;;;;;5030821;28;20064;-78
2024/04/08 02:46:59;;;;;;;1999.90;999.90;;;;;;;;;;5036497;28;20049;-79
2024/04/08 02:49:26;;;;;;;1999.90;999.90;;;;;;;;;;5035030;28;20136;-79
2024/04/08 02:51:53;;;;;;;1999.90;999.90;;;;;;;;;;5028453;28;20061;-78
2024/04/08 02:54:18;;;;;;;1999.90;999.90;;;;;;;;;;5032758;28;20057;-79
2024/04/08 02:56:48;;;;;;;1999.90;999.90;;;;;;;;;;5029118;28;20053;-79
2024/04/08 02:59:13;;;;;;;1999.90;999.90;;;;;;;;;;5032965;28;20054;-80
2024/04/08 03:01:40;;;;;;;1999.90;999.90;;;;;;;;;;5031203;28;20050;-79
2024/04/08 03:04:05;;;;;;;1999.90;999.90;;;;;;;;;;5031810;28;20068;-78
2024/04/08 03:06:33;;;;;;;1999.90;999.90;;;;;;;;;;5034698;28;20495;-78
2024/04/08 03:09:00;;;;;;;1999.90;999.90;;;;;;;;;;5035022;28;20419;-78
2024/04/08 03:11:27;;;;;;;1999.90;999.90;;;;;;;;;;5032374;28;20037;-79
2024/04/08 03:14:05;;;;;;;1999.90;999.90;;;;;;;;;;5033102;28;20416;-78
2024/04/08 03:16:32;;;;;;;1999.90;999.90;;;;;;;;;;5034318;28;20084;-78
2024/04/08 03:18:58;;;;;;;1999.90;999.90;;;;;;;;;;5028495;28;20491;-78
2024/04/08 03:21:24;;;;;;;1999.90;999.90;;;;;;;;;;5036404;28;20052;-79
2024/04/08 03:23:51;;;;;;;1999.90;999.90;;;;;;;;;;5037968;28;20053;-80
2024/04/08 03:26:18;;;;;;;1999.90;999.90;;;;;;;;;;5034463;28;20052;-79
2024/04/08 03:28:43;;;;;;;1999.90;999.90;;;;;;;;;;5033342;28;20487;-80
2024/04/08 03:31:10;;;;;;;1999.90;999.90;;;;;;;;;;5040312;28;20037;-80
2024/04/08 03:33:36;;;;;;;1999.90;999.90;;;;;;;;;;5033048;28;20058;-78
2024/04/08 03:36:08;;;;;;;1999.90;999.90;;;;;;;;;;5032558;28;20050;-80
2024/04/08 03:38:34;;;;;;;1999.90;999.90;;;;;;;;;;5036486;28;20057;-78
2024/04/08 03:41:04;;;;;;;1999.90;999.90;;;;;;;;;;5034916;28;20049;-78
2024/04/08 03:43:31;;;;;;;1999.90;999.90;;;;;;;;;;5032807;28;20053;-79
2024/04/08 03:45:58;;;;;;;1999.90;999.90;;;;;;;;;;5037027;28;20490;-78
2024/04/08 03:48:25;;;;;;;1999.90;999.90;;;;;;;;;;5031166;28;20049;-78
2024/04/08 03:50:51;;;;;;;1999.90;999.90;;;;;;;;;;5033154;28;20466;-78
2024/04/08 03:53:18;;;;;;;1999.90;999.90;;;;;;;;;;5036023;28;20046;-79
2024/04/08 03:55:45;;;;;;;1999.90;999.90;;;;;;;;;;5028276;28;20408;-79
2024/04/08 03:58:13;;;;;;;1999.90;999.90;;;;;;;;;;5032858;28;20060;-79
2024/04/08 04:00:38;;;;;;;1999.90;999.90;;;;;;;;;;5035214;28;20112;-80
2024/04/08 04:03:05;;;;;;;1999.90;999.90;;;;;;;;;;5040346;28;20053;-79
2024/04/08 04:05:31;;;;;;;1999.90;999.90;;;;;;;;;;5031609;28;20104;-80
2024/04/08 04:07:58;;;;;;;1999.90;999.90;;;;;;;;;;5028305;28;20049;-80
2024/04/08 04:10:24;;;;;;;1999.90;999.90;;;;;;;;;;5032397;28;20044;-80
2024/04/08 04:12:50;;;;;;;1999.90;999.90;;;;;;;;;;5031839;28;20718;-81
2024/04/08 04:15:18;;;;;;;1999.90;999.90;;;;;;;;;;5032639;28;20115;-81
2024/04/08 04:17:44;;;;;;;1999.90;999.90;;;;;;;;;;5034914;28;20076;-81
2024/04/08 04:20:14;;;;;;;1999.90;999.90;;;;;;;;;;5031634;28;20088;-81
2024/04/08 04:22:40;;;;;;;1999.90;999.90;;;;;;;;;;5024147;28;20144;-80
2024/04/08 04:25:08;;;;;;;1999.90;999.90;;;;;;;;;;5027553;28;20073;-80
2024/04/08 04:27:34;;;;;;;1999.90;999.90;;;;;;;;;;5039769;28;20057;-80
2024/04/08 04:30:00;;;;;;;1999.90;999.90;;;;;;;;;;5031505;28;20115;-81
2024/04/08 04:32:28;;;;;;;1999.90;999.90;;;;;;;;;;5036838;28;20711;-80
2024/04/08 04:34:54;;;;;;;1999.90;999.90;;;;;;;;;;5035732;28;20118;-80
2024/04/08 04:37:21;;;;;;;1999.90;999.90;;;;;;;;;;5030221;28;20106;-79
2024/04/08 04:39:47;;;;;;;1999.90;999.90;;;;;;;;;;5027809;28;20130;-80
2024/04/08 04:42:15;;;;;;;1999.90;999.90;;;;;;;;;;5028397;28;20053;-80
2024/04/08 04:44:41;;;;;;;1999.90;999.90;;;;;;;;;;5027172;28;20060;-80
2024/04/08 04:47:08;;;;;;;1999.90;999.90;;;;;;;;;;5025474;28;20045;-80
2024/04/08 04:49:35;;;;;;;1999.90;999.90;;;;;;;;;;5022423;28;20447;-80
2024/04/08 04:52:02;;;;;;;1999.90;999.90;;;;;;;;;;5026223;28;20045;-81
2024/04/08 04:54:28;;;;;;;1999.90;999.90;;;;;;;;;;5029787;28;20084;-80
2024/04/08 04:56:55;;;;;;;1999.90;999.90;;;;;;;;;;5027428;28;20057;-80
2024/04/08 04:59:22;;;;;;;1999.90;999.90;;;;;;;;;;5029104;28;20046;-80
2024/04/08 05:01:49;;;;;;;1999.90;999.90;;;;;;;;;;5028003;28;20045;-81
2024/04/08 05:04:15;;;;;;;1999.90;999.90;;;;;;;;;;5028605;28;20135;-81
2024/04/08 05:06:43;;;;;;;1999.90;999.90;;;;;;;;;;5032901;28;20064;-81
2024/04/08 05:09:09;;;;;;;1999.90;999.90;;;;;;;;;;5030341;28;20148;-81
2024/04/08 05:11:35;;;;;;;1999.90;999.90;;;;;;;;;;5029599;28;20041;-81
2024/04/08 05:14:01;;;;;;;1999.90;999.90;;;;;;;;;;5027104;28;20546;-81
2024/04/08 05:16:29;;;;;;;1999.90;999.90;;;;;;;;;;5030747;28;20060;-81
2024/04/08 05:18:55;;;;;;;1999.90;999.90;;;;;;;;;;5031044;28;20121;-81
2024/04/08 05:21:22;;;;;;;1999.90;999.90;;;;;;;;;;5031998;28;20251;-80
2024/04/08 05:23:50;;;;;;;1999.90;999.90;;;;;;;;;;5029735;28;20123;-81
2024/04/08 05:26:17;;;;;;;1999.90;999.90;;;;;;;;;;5036415;28;20804;-81
2024/04/08 05:28:43;;;;;;;1999.90;999.90;;;;;;;;;;5038495;28;20108;-80
2024/04/08 05:31:10;;;;;;;1999.90;999.90;;;;;;;;;;5030710;28;20160;-80
2024/04/08 05:33:35;;;;;;;1999.90;999.90;;;;;;;;;;5029362;28;20042;-80
2024/04/08 05:36:03;;;;;;;1999.90;999.90;;;;;;;;;;5029347;28;20107;-81
2024/04/08 05:38:29;;;;;;;1999.90;999.90;;;;;;;;;;5036912;28;20064;-81
2024/04/08 05:41:01;;;;;;;1999.90;999.90;;;;;;;;;;5033172;28;20045;-80
2024/04/08 05:43:27;;;;;;;1999.90;999.90;;;;;;;;;;5026327;28;20060;-80
2024/04/08 05:45:53;;;;;;;1999.90;999.90;;;;;;;;;;5019245;28;20453;-81
2024/04/08 05:48:19;;;;;;;1999.90;999.90;;;;;;;;;;5034962;28;20136;-81
2024/04/08 05:50:47;;;;;;;1999.90;999.90;;;;;;;;;;5029657;28;20806;-80
2024/04/08 05:53:13;;;;;;;1999.90;999.90;;;;;;;;;;5031109;28;20136;-80
2024/04/08 05:55:39;;;;;;;1999.90;999.90;;;;;;;;;;5032946;28;20140;-79
2024/04/08 05:58:07;;;;;;;1999.90;999.90;;;;;;;;;;5038576;28;20640;-79
2024/04/08 06:00:35;;;;;;;1999.90;999.90;;;;;;;;;;5032948;28;20526;-80
2024/04/08 06:03:01;;;;;;;1999.90;999.90;;;;;;;;;;5036609;28;20053;-79
2024/04/08 06:05:28;;;;;;;1999.90;999.90;;;;;;;;;;5027325;28;20061;-83
2024/04/08 06:07:53;;;;;;;1999.90;999.90;;;;;;;;;;5032955;28;20062;-82
2024/04/08 06:10:21;;;;;;;1999.90;999.90;;;;;;;;;;5033038;28;20061;-81
2024/04/08 06:12:48;;;;;;;1999.90;999.90;;;;;;;;;;5031227;28;20518;-81
2024/04/08 06:15:17;;;;;;;1999.90;999.90;;;;;;;;;;5036791;28;20048;-81
2024/04/08 06:17:42;;;;;;;1999.90;999.90;;;;;;;;;;5031707;28;20060;-82
2024/04/08 06:20:10;;;;;;;1999.90;999.90;;;;;;;;;;5037412;28;20053;-82
2024/04/08 06:22:35;;;;;;;1999.90;999.90;;;;;;;;;;5033174;28;20077;-82
2024/04/08 06:25:02;;;;;;;1999.90;999.90;;;;;;;;;;5037554;28;20080;-80
2024/04/08 06:27:28;;;;;;;1999.90;999.90;;;;;;;;;;5033069;28;20131;-79
2024/04/08 06:29:54;;;;;;;1999.90;999.90;;;;;;;;;;5032359;28;20136;-80
2024/04/08 06:32:21;;;;;;;1999.90;999.90;;;;;;;;;;5033252;28;20049;-80
2024/04/08 06:34:49;;;;;;;1999.90;999.90;;;;;;;;;;5029863;28;20045;-80
2024/04/08 06:37:15;;;;;;;1999.90;999.90;;;;;;;;;;5029433;28;20057;-80
2024/04/08 06:39:42;;;;;;;1999.90;999.90;;;;;;;;;;5032502;28;20048;-80
2024/04/08 06:42:15;;;;;;;1999.90;999.90;;;;;;;;;;5031330;28;20053;-81
2024/04/08 06:44:42;;;;;;;1999.90;999.90;;;;;;;;;;5037479;28;20061;-79
2024/04/08 06:47:08;;;;;;;1999.90;999.90;;;;;;;;;;5033941;28;20435;-81
2024/04/08 06:49:36;;;;;;;1999.90;999.90;;;;;;;;;;5029009;28;20049;-81
2024/04/08 06:52:02;;;;;;;1999.90;999.90;;;;;;;;;;5033202;28;20048;-81
2024/04/08 06:54:28;;;;;;;1999.90;999.90;;;;;;;;;;5032243;28;20057;-80
2024/04/08 06:56:54;;;;;;;1999.90;999.90;;;;;;;;;;5035184;28;20060;-81
2024/04/08 06:59:21;;;;;;;1999.90;999.90;;;;;;;;;;5033921;28;20061;-81
2024/04/08 07:01:46;;;;;;;1999.90;999.90;;;;;;;;;;5034631;28;20041;-81
2024/04/08 07:04:14;;;;;;;1999.90;999.90;;;;;;;;;;5036864;28;20060;-81
2024/04/08 07:06:41;;;;;;;1999.90;999.90;;;;;;;;;;5033545;28;20187;-80
2024/04/08 07:09:08;;;;;;;1999.90;999.90;;;;;;;;;;5040715;28;20102;-81
2024/04/08 07:11:33;;;;;;;1999.90;999.90;;;;;;;;;;5038120;28;20148;-81
2024/04/08 07:14:00;;;;;;;1999.90;999.90;;;;;;;;;;5037561;28;20534;-81
2024/04/08 07:16:26;;;;;;;1999.90;999.90;;;;;;;;;;5038966;28;20053;-82
2024/04/08 07:18:52;;;;;;;1999.90;999.90;;;;;;;;;;5034537;28;20052;-81
2024/04/08 07:21:18;;;;;;;1999.90;999.90;;;;;;;;;;5033100;28;20049;-81
2024/04/08 07:23:51;;;;;;;1999.90;999.90;;;;;;;;;;5030537;28;20057;-82
2024/04/08 07:26:17;;;;;;;1999.90;999.90;;;;;;;;;;5034099;28;20068;-81
2024/04/08 07:28:44;;;;;;;1999.90;999.90;;;;;;;;;;5039446;28;20053;-81
2024/04/08 07:31:10;;;;;;;1999.90;999.90;;;;;;;;;;5029938;28;20049;-81
2024/04/08 07:33:36;;;;;;;1999.90;999.90;;;;;;;;;;5031086;28;20042;-81
2024/04/08 07:36:02;;;;;;;1999.90;999.90;;;;;;;;;;5026928;28;20141;-82
2024/04/08 07:38:28;;;;;;;1999.90;999.90;;;;;;;;;;5026743;28;20055;-82
2024/04/08 07:40:56;;;;;;;1999.90;999.90;;;;;;;;;;5030078;28;20422;-81
2024/04/08 07:43:23;;;;;;;1999.90;999.90;;;;;;;;;;5030643;28;20057;-82
2024/04/08 07:45:49;;;;;;;1999.90;999.90;;;;;;;;;;5028695;28;20061;-81
2024/04/08 07:48:16;;;;;;;1999.90;999.90;;;;;;;;;;5028600;28;20056;-81
2024/04/08 07:50:41;;;;;;;1999.90;999.90;;;;;;;;;;5029737;28;20057;-81
2024/04/08 07:53:09;;;;;;;1999.90;999.90;;;;;;;;;;5028363;28;20508;-81
2024/04/08 07:55:34;;;;;;;1999.90;999.90;;;;;;;;;;5034761;28;20103;-81
2024/04/08 07:58:02;;;;;;;1999.90;999.90;;;;;;;;;;5037307;28;20129;-82
2024/04/08 08:00:28;;;;;;;1999.90;999.90;;;;;;;;;;5023190;28;20146;-81
2024/04/08 08:02:55;;;;;;;1999.90;999.90;;;;;;;;;;5027418;28;20084;-81
2024/04/08 08:05:20;;;;;;;1999.90;999.90;;;;;;;;;;5037549;28;20044;-81
2024/04/08 08:07:47;;;;;;;1999.90;999.90;;;;;;;;;;5030175;28;20065;-82
2024/04/08 08:10:13;;;;;;;1999.90;999.90;;;;;;;;;;5032362;28;20487;-82
2024/04/08 08:12:40;;;;;;;1999.90;999.90;;;;;;;;;;5029853;28;20049;-81
2024/04/08 08:15:08;;;;;;;1999.90;999.90;;;;;;;;;;5032513;28;20041;-82
2024/04/08 08:17:35;;;;;;;1999.90;999.90;;;;;;;;;;5029939;28;20140;-82
2024/04/08 08:20:00;;;;;;;1999.90;999.90;;;;;;;;;;5029948;28;20060;-82
2024/04/08 08:22:27;;;;;;;1999.90;999.90;;;;;;;;;;5032408;28;20053;-82
2024/04/08 08:24:53;;;;;;;1999.90;999.90;;;;;;;;;;5026047;28;20053;-82
2024/04/08 08:29:09;;;;;;;1999.90;999.90;;;;;;;;;;5420734;25;20875;-82
2024/04/08 08:31:37;;;;;;;1999.90;999.90;;;;;;;;;;5414781;26;20000;-82
2024/04/08 08:34:06;;;;;;;1999.90;999.90;;;;;;;;;;5404862;26;20007;-82
2024/04/08 08:36:31;;;;;;;1999.90;999.90;;;;;;;;;;5411386;26;20000;-83
2024/04/08 08:39:00;;;;;;;1999.90;999.90;;;;;;;;;;5409520;26;20010;-83
2024/04/08 08:41:30;;;;;;;1999.90;999.90;;;;;;;;;;5410858;26;20000;-82
2024/04/08 08:44:01;;;;;;;1999.90;999.90;;;;;;;;;;5407063;26;20471;-82
2024/04/08 08:46:30;;;;;;;1999.90;999.90;;;;;;;;;;5407466;26;20004;-83
2024/04/08 08:49:01;;;;;;;1999.90;999.90;;;;;;;;;;5412454;26;20026;-82
2024/04/08 08:51:27;;;;;;;1999.90;999.90;;;;;;;;;;5409258;26;20000;-82
2024/04/08 08:53:55;;;;;;;1999.90;999.90;;;;;;;;;;5410433;26;20003;-83
2024/04/08 08:56:23;;;;;;;1999.90;999.90;;;;;;;;;;5414706;26;20075;-88
2024/04/08 08:58:55;;;;;;;1999.90;999.90;;;;;;;;;;5411498;26;20014;-86
2024/04/08 09:01:21;;;;;;;1999.90;999.90;;;;;;;;;;5411016;26;20057;-87
2024/04/08 09:03:53;;;;;;;1999.90;999.90;;;;;;;;;;5408302;26;20008;-86
2024/04/08 09:06:20;;;;;;;1999.90;999.90;;;;;;;;;;5406550;26;20144;-86
2024/04/08 09:08:48;;;;;;;1999.90;999.90;;;;;;;;;;5408336;26;20000;-85
2024/04/08 09:11:15;;;;;;;1999.90;999.90;;;;;;;;;;5413983;26;20807;-85
2024/04/08 09:13:44;;;;;;;1999.90;999.90;;;;;;;;;;5406512;26;20054;-86
2024/04/08 09:16:10;;;;;;;1999.90;999.90;;;;;;;;;;5418870;26;20039;-86
2024/04/08 09:18:38;;;;;;;1999.90;999.90;;;;;;;;;;5411352;26;20414;-81
2024/04/08 09:21:07;;;;;;;1999.90;999.90;;;;;;;;;;5410922;26;20480;-88
2024/04/08 09:23:42;;;;;;;1999.90;999.90;;;;;;;;;;5417692;26;20031;-87
2024/04/08 09:26:07;;;;;;;1999.90;999.90;;;;;;;;;;5409153;26;20008;-88
2024/04/08 09:28:36;;;;;;;1999.90;999.90;;;;;;;;;;5407256;26;20088;-88
2024/04/08 09:31:01;;;;;;;1999.90;999.90;;;;;;;;;;5410639;26;20089;-88
2024/04/08 09:33:31;;;;;;;1999.90;999.90;;;;;;;;;;5415090;26;20012;-86
2024/04/08 09:35:57;;;;;;;1999.90;999.90;;;;;;;;;;5412965;26;20000;-86
2024/04/08 09:38:28;;;;;;;1999.90;999.90;;;;;;;;;;5409618;26;20007;-89
2024/04/08 09:40:55;;;;;;;1999.90;999.90;;;;;;;;;;5395622;26;20132;-80
2024/04/08 09:43:24;;;;;;;1999.90;999.90;;;;;;;;;;5392356;26;20004;-82
2024/04/08 09:45:50;;;;;;;1999.90;999.90;;;;;;;;;;5400022;26;20130;-81
2024/04/08 09:48:19;;;;;;;1999.90;999.90;;;;;;;;;;5388216;26;20012;-84
2024/04/08 09:50:45;;;;;;;1999.90;999.90;;;;;;;;;;5390380;26;20008;-82
2024/04/08 09:53:13;;;;;;;1999.90;999.90;;;;;;;;;;5395329;26;20476;-85
2024/04/08 09:55:46;;;;;;;1999.90;999.90;;;;;;;;;;5395361;26;20247;-83
2024/04/08 09:58:19;;;;;;;1999.90;999.90;;;;;;;;;;5400335;26;20018;-86
2024/04/08 10:00:46;;;;;;;1999.90;999.90;;;;;;;;;;5404257;26;20042;-87
2024/04/08 10:03:17;;;;;;;1999.90;999.90;;;;;;;;;;5397942;26;20388;-81
2024/04/08 10:05:43;;;;;;;1999.90;999.90;;;;;;;;;;5404020;26;20074;-81
2024/04/08 10:08:12;;;;;;;1999.90;999.90;;;;;;;;;;5403553;26;20371;-81
2024/04/08 10:10:41;;;;;;;1999.90;999.90;;;;;;;;;;5392260;26;20048;-80
2024/04/08 10:13:11;;;;;;;1999.90;999.90;;;;;;;;;;5394354;26;20019;-82
2024/04/08 10:15:37;;;;;;;1999.90;999.90;;;;;;;;;;5396270;26;20003;-82
2024/04/08 10:18:08;;;;;;;1999.90;999.90;;;;;;;;;;5398810;26;19999;-81
2024/04/08 10:20:33;;;;;;;1999.90;999.90;;;;;;;;;;5394740;26;20011;-80
2024/04/08 10:23:01;;;;;;;1999.90;999.90;;;;;;;;;;5404102;26;19996;-81
2024/04/08 10:25:48;;;;;;;1999.90;999.90;;;;;;;;;;5394742;26;20548;-81
2024/04/08 10:28:20;;;;;;;1999.90;999.90;;;;;;;;;;5393147;26;20007;-82
2024/04/08 10:30:49;;;;;;;1999.90;999.90;;;;;;;;;;5389730;26;20023;-81
2024/04/08 10:33:18;;;;;;;1999.90;999.90;;;;;;;;;;5398241;26;20004;-81
2024/04/08 10:35:43;;;;;;;1999.90;999.90;;;;;;;;;;5404080;26;20022;-81
2024/04/08 10:38:12;;;;;;;1999.90;999.90;;;;;;;;;;5390070;26;20004;-80
2024/04/08 10:40:38;;;;;;;1999.90;999.90;;;;;;;;;;5396339;26;20018;-80
2024/04/08 10:43:09;;;;;;;1999.90;999.90;;;;;;;;;;5397653;26;20564;-81
2024/04/08 10:45:35;;;;;;;1999.90;999.90;;;;;;;;;;5396334;26;20445;-81
2024/04/08 10:48:04;;;;;;;1999.90;999.90;;;;;;;;;;5395456;26;20015;-81
2024/04/08 10:50:30;;;;;;;1999.90;999.90;;;;;;;;;;5399161;26;20018;-81
2024/04/08 10:52:58;;;;;;;1999.90;999.90;;;;;;;;;;5403929;26;20003;-81
2024/04/08 10:55:24;;;;;;;1999.90;999.90;;;;;;;;;;5386099;26;20014;-81
2024/04/08 10:57:52;;;;;;;1999.90;999.90;;;;;;;;;;5395975;26;20345;-80
2024/04/08 11:00:21;;;;;;;1999.90;999.90;;;;;;;;;;5391546;26;20015;-81
2024/04/08 11:02:50;;;;;;;1999.90;999.90;;;;;;;;;;5398162;26;20095;-81
2024/04/08 11:05:15;;;;;;;1999.90;999.90;;;;;;;;;;5397141;26;20465;-80
2024/04/08 11:07:44;;;;;;;1999.90;999.90;;;;;;;;;;5390894;26;20015;-81
2024/04/08 11:10:12;;;;;;;1999.90;999.90;;;;;;;;;;5392427;26;20015;-81
2024/04/08 11:12:40;;;;;;;1999.90;999.90;;;;;;;;;;5391267;26;20004;-81
2024/04/08 11:15:09;;;;;;;1999.90;999.90;;;;;;;;;;5393560;26;20040;-81
2024/04/08 11:17:40;;;;;;;1999.90;999.90;;;;;;;;;;5391698;26;20007;-80
2024/04/08 11:20:06;;;;;;;1999.90;999.90;;;;;;;;;;5390961;26;20000;-80
2024/04/08 11:22:35;;;;;;;1999.90;999.90;;;;;;;;;;5393263;26;20473;-81
2024/04/08 11:25:03;;;;;;;1999.90;999.90;;;;;;;;;;5398399;26;19997;-81
2024/04/08 11:27:31;;;;;;;1999.90;999.90;;;;;;;;;;5392767;26;20012;-81
2024/04/08 11:29:57;;;;;;;1999.90;999.90;;;;;;;;;;5393635;26;20019;-80
2024/04/08 11:32:26;;;;;;;1999.90;999.90;;;;;;;;;;5395167;26;20000;-80
2024/04/08 11:34:54;;;;;;;1999.90;999.90;;;;;;;;;;5394709;26;20088;-81
2024/04/08 11:37:22;;;;;;;1999.90;999.90;;;;;;;;;;5389154;26;20099;-82
2024/04/08 11:39:48;;;;;;;1999.90;999.90;;;;;;;;;;5387386;26;20016;-81
2024/04/08 11:42:16;;;;;;;1999.90;999.90;;;;;;;;;;5387088;26;20012;-81
2024/04/08 11:44:43;;;;;;;1999.90;999.90;;;;;;;;;;5396665;26;20015;-81
2024/04/08 11:47:13;;;;;;;1999.90;999.90;;;;;;;;;;5393698;26;19999;-81
2024/04/08 11:49:40;;;;;;;1999.90;999.90;;;;;;;;;;5386998;26;20076;-80
2024/04/08 11:52:12;;;;;;;1999.90;999.90;;;;;;;;;;5394337;26;20000;-80
2024/04/08 11:54:40;;;;;;;1999.90;999.90;;;;;;;;;;5392322;26;19996;-80
2024/04/08 11:57:08;;;;;;;1999.90;999.90;;;;;;;;;;5387467;26;20018;-80
2024/04/08 11:59:34;;;;;;;1999.90;999.90;;;;;;;;;;5391113;26;20138;-81
2024/04/08 12:02:03;;;;;;;1999.90;999.90;;;;;;;;;;5388821;26;20043;-80
2024/04/08 12:04:29;;;;;;;1999.90;999.90;;;;;;;;;;5392336;26;20093;-80
2024/04/08 12:06:58;;;;;;;1999.90;999.90;;;;;;;;;;5389327;26;20642;-80
2024/04/08 12:09:26;;;;;;;1999.90;999.90;;;;;;;;;;5391402;26;20000;-79
2024/04/08 12:11:54;;;;;;;1999.90;999.90;;;;;;;;;;5397067;26;20004;-79
2024/04/08 12:14:20;;;;;;;1999.90;999.90;;;;;;;;;;5393363;26;20000;-80
2024/04/08 12:16:48;;;;;;;1999.90;999.90;;;;;;;;;;5389857;26;19997;-80
2024/04/08 12:19:13;;;;;;;1999.90;999.90;;;;;;;;;;5387572;26;20143;-80
2024/04/08 12:21:42;;;;;;;1999.90;999.90;;;;;;;;;;5394863;26;20011;-80
2024/04/08 12:24:07;;;;;;;1999.90;999.90;;;;;;;;;;5389630;26;20102;-80
2024/04/08 12:26:39;;;;;;;1999.90;999.90;;;;;;;;;;5391274;26;20012;-80
2024/04/08 12:29:05;;;;;;;1999.90;999.90;;;;;;;;;;5389284;26;20012;-80
2024/04/08 12:31:33;;;;;;;1999.90;999.90;;;;;;;;;;5397102;26;20017;-80
2024/04/08 12:33:59;;;;;;;1999.90;999.90;;;;;;;;;;5398249;26;20015;-80
2024/04/08 12:36:27;;;;;;;1999.90;999.90;;;;;;;;;;5389872;26;20000;-80
2024/04/08 12:38:53;;;;;;;1999.90;999.90;;;;;;;;;;5387744;26;20001;-80
2024/04/08 12:41:22;;;;;;;1999.90;999.90;;;;;;;;;;5392560;26;20579;-80
2024/04/08 12:43:50;;;;;;;1999.90;999.90;;;;;;;;;;5395541;26;20000;-80
2024/04/08 12:46:20;;;;;;;1999.90;999.90;;;;;;;;;;5390584;26;20004;-80
2024/04/08 12:48:46;;;;;;;1999.90;999.90;;;;;;;;;;5390959;26;20019;-80
2024/04/08 12:51:14;;;;;;;1999.90;999.90;;;;;;;;;;5388544;26;19996;-80
2024/04/08 12:53:39;;;;;;;1999.90;999.90;;;;;;;;;;5383729;26;20350;-80
2024/04/08 12:56:11;;;;;;;1999.90;999.90;;;;;;;;;;5392496;26;20022;-80
2024/04/08 12:58:40;;;;;;;1999.90;999.90;;;;;;;;;;5393423;26;20008;-80
2024/04/08 13:01:11;;;;;;;1999.90;999.90;;;;;;;;;;5383945;26;20008;-80
2024/04/08 13:03:36;;;;;;;1999.90;999.90;;;;;;;;;;5393989;26;20466;-80
2024/04/08 13:06:05;;;;;;;1999.90;999.90;;;;;;;;;;5393024;26;20058;-80
2024/04/08 13:08:31;;;;;;;1999.90;999.90;;;;;;;;;;5391177;26;20085;-80
2024/04/08 13:10:59;;;;;;;1999.90;999.90;;;;;;;;;;5394819;26;20004;-80
2024/04/08 13:13:27;;;;;;;1999.90;999.90;;;;;;;;;;5389705;26;20015;-81
2024/04/08 13:15:53;;;;;;;1999.90;999.90;;;;;;;;;;5397235;26;20023;-79
2024/04/08 13:18:24;;;;;;;1999.90;999.90;;;;;;;;;;5395202;26;20427;-79
2024/04/08 13:20:49;;;;;;;1999.90;999.90;;;;;;;;;;5397553;26;20424;-79
2024/04/08 13:23:17;;;;;;;1999.90;999.90;;;;;;;;;;5397136;26;20005;-79
2024/04/08 13:25:43;;;;;;;1999.90;999.90;;;;;;;;;;5387479;26;20019;-80
2024/04/08 13:28:11;;;;;;;1999.90;999.90;;;;;;;;;;5386522;26;20443;-80
2024/04/08 13:30:37;;;;;;;1999.90;999.90;;;;;;;;;;5396589;26;20000;-80
2024/04/08 13:33:05;;;;;;;1999.90;999.90;;;;;;;;;;5390763;26;20022;-80
2024/04/08 13:35:33;;;;;;;1999.90;999.90;;;;;;;;;;5400756;26;20018;-80
2024/04/08 13:38:02;;;;;;;1999.90;999.90;;;;;;;;;;5398661;26;20021;-80
2024/04/08 13:40:27;;;;;;;1999.90;999.90;;;;;;;;;;5397917;26;20004;-80
2024/04/08 13:42:55;;;;;;;1999.90;999.90;;;;;;;;;;5390859;26;20017;-80